sensor_id;sensor_type;location;lat;lon;timestamp;P1;durP1;ratioP1;P2;durP2;ratioP2
32108;SDS011;18624;50.042;8.436;2023-02-11T00:00:14;32.15;;;20.70;;
32108;SDS011;18624;50.042;8.436;2023-02-11T00:02:41;31.20;;;21.23;;
32108;SDS011;18624;50.042;8.436;2023-02-11T00:05:11;29.13;;;20.40;;
32108;SDS011;18624;50.042;8.436;2023-02-11T00:07:38;33.38;;;21.77;;
32108;SDS011;18624;50.042;8.436;2023-02-11T00:10:04;36.33;;;21.10;;
32108;SDS011;18624;50.042;8.436;2023-02-11T00:12:34;28.60;;;19.77;;
32108;SDS011;18624;50.042;8.436;2023-02-11T00:15:03;32.38;;;22.02;;
32108;SDS011;18624;50.042;8.436;2023-02-11T00:17:31;32.00;;;20.48;;
32108;SDS011;18624;50.042;8.436;2023-02-11T00:19:58;31.67;;;21.40;;
32108;SDS011;18624;50.042;8.436;2023-02-11T00:22:24;30.35;;;20.35;;
32108;SDS011;18624;50.042;8.436;2023-02-11T00:24:51;29.58;;;20.92;;
32108;SDS011;18624;50.042;8.436;2023-02-11T00:27:17;33.03;;;19.60;;
32108;SDS011;18624;50.042;8.436;2023-02-11T00:29:44;30.02;;;19.95;;
32108;SDS011;18624;50.042;8.436;2023-02-11T00:32:10;30.17;;;20.83;;
32108;SDS011;18624;50.042;8.436;2023-02-11T00:34:37;29.95;;;21.40;;
32108;SDS011;18624;50.042;8.436;2023-02-11T00:37:04;29.55;;;20.35;;
32108;SDS011;18624;50.042;8.436;2023-02-11T00:39:30;33.58;;;21.52;;
32108;SDS011;18624;50.042;8.436;2023-02-11T00:41:57;33.72;;;21.85;;
32108;SDS011;18624;50.042;8.436;2023-02-11T00:44:23;37.65;;;24.17;;
32108;SDS011;18624;50.042;8.436;2023-02-11T00:46:50;37.08;;;23.73;;
32108;SDS011;18624;50.042;8.436;2023-02-11T00:49:16;33.90;;;22.63;;
32108;SDS011;18624;50.042;8.436;2023-02-11T00:51:43;33.08;;;22.98;;
32108;SDS011;18624;50.042;8.436;2023-02-11T00:54:09;33.40;;;23.23;;
32108;SDS011;18624;50.042;8.436;2023-02-11T00:56:37;37.28;;;24.30;;
32108;SDS011;18624;50.042;8.436;2023-02-11T00:59:03;35.72;;;23.17;;
32108;SDS011;18624;50.042;8.436;2023-02-11T01:01:30;38.42;;;24.33;;
32108;SDS011;18624;50.042;8.436;2023-02-11T01:03:56;42.25;;;27.33;;
32108;SDS011;18624;50.042;8.436;2023-02-11T01:06:23;33.15;;;24.38;;
32108;SDS011;18624;50.042;8.436;2023-02-11T01:08:50;36.80;;;25.80;;
32108;SDS011;18624;50.042;8.436;2023-02-11T01:11:17;40.17;;;26.27;;
32108;SDS011;18624;50.042;8.436;2023-02-11T01:13:45;37.40;;;25.20;;
32108;SDS011;18624;50.042;8.436;2023-02-11T01:16:14;34.13;;;24.00;;
32108;SDS011;18624;50.042;8.436;2023-02-11T01:18:41;35.13;;;25.67;;
32108;SDS011;18624;50.042;8.436;2023-02-11T01:21:09;37.30;;;25.52;;
32108;SDS011;18624;50.042;8.436;2023-02-11T01:23:36;41.88;;;27.13;;
32108;SDS011;18624;50.042;8.436;2023-02-11T01:26:03;43.38;;;26.73;;
32108;SDS011;18624;50.042;8.436;2023-02-11T01:28:30;42.22;;;26.50;;
32108;SDS011;18624;50.042;8.436;2023-02-11T01:30:59;36.90;;;25.25;;
32108;SDS011;18624;50.042;8.436;2023-02-11T01:33:26;41.83;;;27.83;;
32108;SDS011;18624;50.042;8.436;2023-02-11T01:35:52;38.17;;;27.52;;
32108;SDS011;18624;50.042;8.436;2023-02-11T01:38:20;40.38;;;27.35;;
32108;SDS011;18624;50.042;8.436;2023-02-11T01:40:56;45.73;;;31.60;;
32108;SDS011;18624;50.042;8.436;2023-02-11T01:43:30;41.95;;;27.73;;
32108;SDS011;18624;50.042;8.436;2023-02-11T01:46:18;43.50;;;27.75;;
32108;SDS011;18624;50.042;8.436;2023-02-11T01:48:53;32.53;;;22.63;;
32108;SDS011;18624;50.042;8.436;2023-02-11T01:51:24;43.38;;;30.90;;
32108;SDS011;18624;50.042;8.436;2023-02-11T01:53:55;41.15;;;28.75;;
32108;SDS011;18624;50.042;8.436;2023-02-11T01:56:45;44.30;;;29.83;;
32108;SDS011;18624;50.042;8.436;2023-02-11T01:59:37;49.35;;;30.77;;
32108;SDS011;18624;50.042;8.436;2023-02-11T02:02:10;49.13;;;30.75;;
32108;SDS011;18624;50.042;8.436;2023-02-11T02:04:41;42.97;;;29.55;;
32108;SDS011;18624;50.042;8.436;2023-02-11T02:07:16;47.28;;;31.23;;
32108;SDS011;18624;50.042;8.436;2023-02-11T02:09:56;43.65;;;30.25;;
32108;SDS011;18624;50.042;8.436;2023-02-11T02:12:25;46.20;;;32.33;;
32108;SDS011;18624;50.042;8.436;2023-02-11T02:14:51;49.22;;;34.00;;
32108;SDS011;18624;50.042;8.436;2023-02-11T02:17:45;45.92;;;31.70;;
32108;SDS011;18624;50.042;8.436;2023-02-11T02:29:36;47.50;;;31.40;;
32108;SDS011;18624;50.042;8.436;2023-02-11T02:32:35;48.30;;;32.20;;
32108;SDS011;18624;50.042;8.436;2023-02-11T02:35:18;49.15;;;31.33;;
32108;SDS011;18624;50.042;8.436;2023-02-11T02:40:35;49.38;;;32.42;;
32108;SDS011;18624;50.042;8.436;2023-02-11T02:43:07;46.25;;;29.67;;
32108;SDS011;18624;50.042;8.436;2023-02-11T02:45:35;49.95;;;31.60;;
32108;SDS011;18624;50.042;8.436;2023-02-11T02:48:02;47.33;;;30.73;;
32108;SDS011;18624;50.042;8.436;2023-02-11T02:50:29;44.20;;;30.10;;
32108;SDS011;18624;50.042;8.436;2023-02-11T02:53:25;46.63;;;31.15;;
32108;SDS011;18624;50.042;8.436;2023-02-11T02:58:38;49.90;;;33.35;;
32108;SDS011;18624;50.042;8.436;2023-02-11T03:01:25;47.03;;;29.63;;
32108;SDS011;18624;50.042;8.436;2023-02-11T03:06:51;50.35;;;31.85;;
32108;SDS011;18624;50.042;8.436;2023-02-11T03:09:26;46.47;;;30.65;;
32108;SDS011;18624;50.042;8.436;2023-02-11T03:11:57;45.35;;;30.45;;
32108;SDS011;18624;50.042;8.436;2023-02-11T03:14:27;44.20;;;30.60;;
32108;SDS011;18624;50.042;8.436;2023-02-11T03:16:56;44.13;;;29.50;;
32108;SDS011;18624;50.042;8.436;2023-02-11T03:19:27;41.95;;;29.88;;
32108;SDS011;18624;50.042;8.436;2023-02-11T03:21:57;51.38;;;32.70;;
32108;SDS011;18624;50.042;8.436;2023-02-11T03:24:28;47.30;;;30.85;;
32108;SDS011;18624;50.042;8.436;2023-02-11T03:27:00;49.28;;;31.90;;
32108;SDS011;18624;50.042;8.436;2023-02-11T03:34:57;44.88;;;30.52;;
32108;SDS011;18624;50.042;8.436;2023-02-11T03:37:42;48.17;;;29.35;;
32108;SDS011;18624;50.042;8.436;2023-02-11T03:40:14;45.03;;;29.90;;
32108;SDS011;18624;50.042;8.436;2023-02-11T03:42:51;46.03;;;32.47;;
32108;SDS011;18624;50.042;8.436;2023-02-11T03:45:23;53.30;;;32.67;;
32108;SDS011;18624;50.042;8.436;2023-02-11T03:48:06;46.80;;;30.35;;
32108;SDS011;18624;50.042;8.436;2023-02-11T03:50:37;45.65;;;30.80;;
32108;SDS011;18624;50.042;8.436;2023-02-11T03:53:06;48.72;;;32.95;;
32108;SDS011;18624;50.042;8.436;2023-02-11T03:55:36;50.67;;;31.88;;
32108;SDS011;18624;50.042;8.436;2023-02-11T03:58:05;43.15;;;29.90;;
32108;SDS011;18624;50.042;8.436;2023-02-11T04:00:33;46.03;;;30.27;;
32108;SDS011;18624;50.042;8.436;2023-02-11T04:03:02;46.20;;;29.02;;
32108;SDS011;18624;50.042;8.436;2023-02-11T04:05:29;45.05;;;31.08;;
32108;SDS011;18624;50.042;8.436;2023-02-11T04:07:56;46.72;;;29.58;;
32108;SDS011;18624;50.042;8.436;2023-02-11T04:10:22;43.47;;;30.90;;
32108;SDS011;18624;50.042;8.436;2023-02-11T04:12:49;40.78;;;28.58;;
32108;SDS011;18624;50.042;8.436;2023-02-11T04:15:15;45.45;;;30.17;;
32108;SDS011;18624;50.042;8.436;2023-02-11T04:17:42;43.20;;;28.15;;
32108;SDS011;18624;50.042;8.436;2023-02-11T04:20:10;41.33;;;28.65;;
32108;SDS011;18624;50.042;8.436;2023-02-11T04:22:37;44.10;;;28.13;;
32108;SDS011;18624;50.042;8.436;2023-02-11T04:25:04;45.20;;;29.52;;
32108;SDS011;18624;50.042;8.436;2023-02-11T04:27:31;40.72;;;27.50;;
32108;SDS011;18624;50.042;8.436;2023-02-11T04:29:57;42.17;;;27.02;;
32108;SDS011;18624;50.042;8.436;2023-02-11T04:32:24;37.67;;;27.13;;
32108;SDS011;18624;50.042;8.436;2023-02-11T04:34:50;38.00;;;24.77;;
32108;SDS011;18624;50.042;8.436;2023-02-11T04:37:17;44.55;;;28.88;;
32108;SDS011;18624;50.042;8.436;2023-02-11T04:39:43;44.53;;;28.83;;
32108;SDS011;18624;50.042;8.436;2023-02-11T04:42:09;44.78;;;29.73;;
32108;SDS011;18624;50.042;8.436;2023-02-11T04:44:36;34.15;;;25.30;;
32108;SDS011;18624;50.042;8.436;2023-02-11T04:47:02;33.65;;;24.13;;
32108;SDS011;18624;50.042;8.436;2023-02-11T04:49:29;40.97;;;27.05;;
32108;SDS011;18624;50.042;8.436;2023-02-11T04:51:56;38.65;;;27.75;;
32108;SDS011;18624;50.042;8.436;2023-02-11T04:54:22;37.40;;;26.95;;
32108;SDS011;18624;50.042;8.436;2023-02-11T04:56:48;41.17;;;27.33;;
32108;SDS011;18624;50.042;8.436;2023-02-11T04:59:16;45.80;;;28.90;;
32108;SDS011;18624;50.042;8.436;2023-02-11T05:01:42;38.45;;;27.27;;
32108;SDS011;18624;50.042;8.436;2023-02-11T05:04:09;37.97;;;26.02;;
32108;SDS011;18624;50.042;8.436;2023-02-11T05:06:36;39.33;;;26.92;;
32108;SDS011;18624;50.042;8.436;2023-02-11T05:09:04;41.22;;;26.90;;
32108;SDS011;18624;50.042;8.436;2023-02-11T05:11:31;39.88;;;27.20;;
32108;SDS011;18624;50.042;8.436;2023-02-11T05:13:57;38.10;;;24.85;;
32108;SDS011;18624;50.042;8.436;2023-02-11T05:16:24;38.75;;;26.35;;
32108;SDS011;18624;50.042;8.436;2023-02-11T05:18:50;34.78;;;24.73;;
32108;SDS011;18624;50.042;8.436;2023-02-11T05:21:18;36.30;;;25.52;;
32108;SDS011;18624;50.042;8.436;2023-02-11T05:23:44;41.00;;;26.50;;
32108;SDS011;18624;50.042;8.436;2023-02-11T05:26:11;39.72;;;25.40;;
32108;SDS011;18624;50.042;8.436;2023-02-11T05:28:38;41.08;;;25.83;;
32108;SDS011;18624;50.042;8.436;2023-02-11T05:31:05;42.08;;;27.15;;
32108;SDS011;18624;50.042;8.436;2023-02-11T05:33:32;39.28;;;25.98;;
32108;SDS011;18624;50.042;8.436;2023-02-11T05:36:00;36.78;;;25.15;;
32108;SDS011;18624;50.042;8.436;2023-02-11T05:38:28;36.85;;;25.13;;
32108;SDS011;18624;50.042;8.436;2023-02-11T05:40:55;36.95;;;25.88;;
32108;SDS011;18624;50.042;8.436;2023-02-11T05:43:21;36.25;;;23.25;;
32108;SDS011;18624;50.042;8.436;2023-02-11T05:45:48;35.53;;;25.20;;
32108;SDS011;18624;50.042;8.436;2023-02-11T05:48:15;34.95;;;24.13;;
32108;SDS011;18624;50.042;8.436;2023-02-11T05:50:42;40.45;;;26.02;;
32108;SDS011;18624;50.042;8.436;2023-02-11T05:53:08;37.65;;;25.60;;
32108;SDS011;18624;50.042;8.436;2023-02-11T05:55:35;40.78;;;27.05;;
32108;SDS011;18624;50.042;8.436;2023-02-11T05:58:02;36.72;;;24.17;;
32108;SDS011;18624;50.042;8.436;2023-02-11T06:00:29;40.75;;;25.50;;
32108;SDS011;18624;50.042;8.436;2023-02-11T06:02:55;37.22;;;24.70;;
32108;SDS011;18624;50.042;8.436;2023-02-11T06:05:21;39.33;;;27.20;;
32108;SDS011;18624;50.042;8.436;2023-02-11T06:07:48;36.08;;;25.50;;
32108;SDS011;18624;50.042;8.436;2023-02-11T06:10:14;34.20;;;23.75;;
32108;SDS011;18624;50.042;8.436;2023-02-11T06:12:41;35.40;;;25.05;;
32108;SDS011;18624;50.042;8.436;2023-02-11T06:15:07;38.53;;;26.58;;
32108;SDS011;18624;50.042;8.436;2023-02-11T06:17:34;32.25;;;23.83;;
32108;SDS011;18624;50.042;8.436;2023-02-11T06:20:03;37.17;;;25.27;;
32108;SDS011;18624;50.042;8.436;2023-02-11T06:22:31;35.22;;;23.05;;
32108;SDS011;18624;50.042;8.436;2023-02-11T06:25:00;39.75;;;27.92;;
32108;SDS011;18624;50.042;8.436;2023-02-11T06:27:28;35.72;;;24.25;;
32108;SDS011;18624;50.042;8.436;2023-02-11T06:29:54;41.70;;;25.95;;
32108;SDS011;18624;50.042;8.436;2023-02-11T06:32:21;36.30;;;24.48;;
32108;SDS011;18624;50.042;8.436;2023-02-11T06:35:07;40.03;;;26.75;;
32108;SDS011;18624;50.042;8.436;2023-02-11T06:37:37;36.38;;;22.85;;
32108;SDS011;18624;50.042;8.436;2023-02-11T06:40:04;35.63;;;25.30;;
32108;SDS011;18624;50.042;8.436;2023-02-11T06:42:30;36.60;;;24.88;;
32108;SDS011;18624;50.042;8.436;2023-02-11T06:44:57;37.17;;;25.38;;
32108;SDS011;18624;50.042;8.436;2023-02-11T06:47:23;34.25;;;25.67;;
32108;SDS011;18624;50.042;8.436;2023-02-11T06:49:50;34.00;;;23.90;;
32108;SDS011;18624;50.042;8.436;2023-02-11T06:52:16;41.60;;;25.42;;
32108;SDS011;18624;50.042;8.436;2023-02-11T06:54:43;37.45;;;27.10;;
32108;SDS011;18624;50.042;8.436;2023-02-11T06:57:09;36.50;;;24.15;;
32108;SDS011;18624;50.042;8.436;2023-02-11T06:59:36;36.55;;;24.27;;
32108;SDS011;18624;50.042;8.436;2023-02-11T07:02:02;40.22;;;25.80;;
32108;SDS011;18624;50.042;8.436;2023-02-11T07:04:29;37.10;;;23.42;;
32108;SDS011;18624;50.042;8.436;2023-02-11T07:06:55;35.50;;;23.67;;
32108;SDS011;18624;50.042;8.436;2023-02-11T07:09:21;36.10;;;26.80;;
32108;SDS011;18624;50.042;8.436;2023-02-11T07:11:48;48.75;;;31.52;;
32108;SDS011;18624;50.042;8.436;2023-02-11T07:14:14;44.65;;;28.50;;
32108;SDS011;18624;50.042;8.436;2023-02-11T07:16:41;38.47;;;24.98;;
32108;SDS011;18624;50.042;8.436;2023-02-11T07:19:07;39.05;;;24.90;;
32108;SDS011;18624;50.042;8.436;2023-02-11T07:21:34;39.08;;;25.90;;
32108;SDS011;18624;50.042;8.436;2023-02-11T07:24:00;35.85;;;25.00;;
32108;SDS011;18624;50.042;8.436;2023-02-11T07:26:27;39.25;;;26.60;;
32108;SDS011;18624;50.042;8.436;2023-02-11T07:28:56;34.90;;;24.30;;
32108;SDS011;18624;50.042;8.436;2023-02-11T07:31:24;36.50;;;24.92;;
32108;SDS011;18624;50.042;8.436;2023-02-11T07:33:53;33.75;;;23.55;;
32108;SDS011;18624;50.042;8.436;2023-02-11T07:36:21;36.80;;;25.42;;
32108;SDS011;18624;50.042;8.436;2023-02-11T07:38:48;37.45;;;24.42;;
32108;SDS011;18624;50.042;8.436;2023-02-11T07:41:16;36.50;;;23.48;;
32108;SDS011;18624;50.042;8.436;2023-02-11T07:43:44;36.10;;;24.83;;
32108;SDS011;18624;50.042;8.436;2023-02-11T07:46:12;36.47;;;25.70;;
32108;SDS011;18624;50.042;8.436;2023-02-11T07:48:40;36.47;;;25.38;;
32108;SDS011;18624;50.042;8.436;2023-02-11T07:53:41;34.85;;;23.67;;
32108;SDS011;18624;50.042;8.436;2023-02-11T07:56:08;38.03;;;26.83;;
32108;SDS011;18624;50.042;8.436;2023-02-11T07:58:36;42.50;;;27.15;;
32108;SDS011;18624;50.042;8.436;2023-02-11T08:01:04;41.47;;;27.88;;
32108;SDS011;18624;50.042;8.436;2023-02-11T08:03:34;41.35;;;25.33;;
32108;SDS011;18624;50.042;8.436;2023-02-11T08:06:05;35.05;;;24.85;;
32108;SDS011;18624;50.042;8.436;2023-02-11T08:08:32;36.85;;;25.13;;
32108;SDS011;18624;50.042;8.436;2023-02-11T08:11:04;38.22;;;24.95;;
32108;SDS011;18624;50.042;8.436;2023-02-11T08:13:32;37.50;;;25.23;;
32108;SDS011;18624;50.042;8.436;2023-02-11T08:15:59;36.78;;;24.85;;
32108;SDS011;18624;50.042;8.436;2023-02-11T08:18:25;37.15;;;23.88;;
32108;SDS011;18624;50.042;8.436;2023-02-11T08:20:52;33.80;;;24.52;;
32108;SDS011;18624;50.042;8.436;2023-02-11T08:23:18;37.95;;;24.80;;
32108;SDS011;18624;50.042;8.436;2023-02-11T08:25:45;38.13;;;25.38;;
32108;SDS011;18624;50.042;8.436;2023-02-11T08:28:11;36.95;;;25.10;;
32108;SDS011;18624;50.042;8.436;2023-02-11T08:30:37;32.65;;;23.13;;
32108;SDS011;18624;50.042;8.436;2023-02-11T08:33:04;36.05;;;24.27;;
32108;SDS011;18624;50.042;8.436;2023-02-11T08:35:30;36.10;;;24.83;;
32108;SDS011;18624;50.042;8.436;2023-02-11T08:37:58;33.20;;;23.48;;
32108;SDS011;18624;50.042;8.436;2023-02-11T08:40:24;32.95;;;23.25;;
32108;SDS011;18624;50.042;8.436;2023-02-11T08:42:50;36.08;;;22.83;;
32108;SDS011;18624;50.042;8.436;2023-02-11T08:45:17;34.30;;;23.33;;
32108;SDS011;18624;50.042;8.436;2023-02-11T08:47:43;34.08;;;23.42;;
32108;SDS011;18624;50.042;8.436;2023-02-11T08:50:10;38.22;;;23.48;;
32108;SDS011;18624;50.042;8.436;2023-02-11T08:52:36;38.40;;;22.83;;
32108;SDS011;18624;50.042;8.436;2023-02-11T08:55:03;35.65;;;24.75;;
32108;SDS011;18624;50.042;8.436;2023-02-11T08:57:29;35.10;;;24.05;;
32108;SDS011;18624;50.042;8.436;2023-02-11T08:59:56;36.55;;;25.48;;
32108;SDS011;18624;50.042;8.436;2023-02-11T09:02:23;40.80;;;26.02;;
32108;SDS011;18624;50.042;8.436;2023-02-11T09:04:50;36.20;;;24.42;;
32108;SDS011;18624;50.042;8.436;2023-02-11T09:07:16;41.13;;;26.55;;
32108;SDS011;18624;50.042;8.436;2023-02-11T09:09:42;36.05;;;24.27;;
32108;SDS011;18624;50.042;8.436;2023-02-11T09:12:09;35.92;;;23.55;;
32108;SDS011;18624;50.042;8.436;2023-02-11T09:14:35;34.88;;;24.17;;
32108;SDS011;18624;50.042;8.436;2023-02-11T09:17:03;38.53;;;25.17;;
32108;SDS011;18624;50.042;8.436;2023-02-11T09:19:29;34.47;;;23.92;;
32108;SDS011;18624;50.042;8.436;2023-02-11T09:21:56;42.65;;;26.00;;
32108;SDS011;18624;50.042;8.436;2023-02-11T09:24:22;33.38;;;24.05;;
32108;SDS011;18624;50.042;8.436;2023-02-11T09:26:49;37.80;;;25.13;;
32108;SDS011;18624;50.042;8.436;2023-02-11T09:29:15;35.13;;;23.83;;
32108;SDS011;18624;50.042;8.436;2023-02-11T09:31:41;37.95;;;25.55;;
32108;SDS011;18624;50.042;8.436;2023-02-11T09:34:09;39.92;;;26.95;;
32108;SDS011;18624;50.042;8.436;2023-02-11T09:36:37;40.20;;;26.70;;
32108;SDS011;18624;50.042;8.436;2023-02-11T09:39:06;39.25;;;26.70;;
32108;SDS011;18624;50.042;8.436;2023-02-11T09:41:40;38.33;;;26.50;;
32108;SDS011;18624;50.042;8.436;2023-02-11T09:44:27;35.83;;;24.90;;
32108;SDS011;18624;50.042;8.436;2023-02-11T09:47:00;49.90;;;27.65;;
32108;SDS011;18624;50.042;8.436;2023-02-11T09:49:32;39.92;;;26.67;;
32108;SDS011;18624;50.042;8.436;2023-02-11T09:52:06;32.88;;;24.33;;
32108;SDS011;18624;50.042;8.436;2023-02-11T09:54:48;38.47;;;25.63;;
32108;SDS011;18624;50.042;8.436;2023-02-11T09:57:20;40.45;;;24.90;;
32108;SDS011;18624;50.042;8.436;2023-02-11T09:59:54;41.95;;;26.73;;
32108;SDS011;18624;50.042;8.436;2023-02-11T10:02:28;37.85;;;25.35;;
32108;SDS011;18624;50.042;8.436;2023-02-11T10:05:24;37.15;;;25.52;;
32108;SDS011;18624;50.042;8.436;2023-02-11T10:13:24;36.95;;;25.20;;
32108;SDS011;18624;50.042;8.436;2023-02-11T10:21:16;34.50;;;23.50;;
32108;SDS011;18624;50.042;8.436;2023-02-11T10:23:54;37.33;;;28.08;;
32108;SDS011;18624;50.042;8.436;2023-02-11T10:26:26;34.20;;;24.63;;
32108;SDS011;18624;50.042;8.436;2023-02-11T10:28:58;35.25;;;24.30;;
32108;SDS011;18624;50.042;8.436;2023-02-11T10:31:34;35.05;;;25.63;;
32108;SDS011;18624;50.042;8.436;2023-02-11T10:34:06;33.85;;;24.52;;
32108;SDS011;18624;50.042;8.436;2023-02-11T10:36:37;39.58;;;25.83;;
32108;SDS011;18624;50.042;8.436;2023-02-11T10:39:10;39.55;;;26.95;;
32108;SDS011;18624;50.042;8.436;2023-02-11T10:42:08;37.15;;;24.55;;
32108;SDS011;18624;50.042;8.436;2023-02-11T10:45:31;34.25;;;24.20;;
32108;SDS011;18624;50.042;8.436;2023-02-11T10:47:30;37.05;;;24.40;;
32108;SDS011;18624;50.042;8.436;2023-02-11T10:52:49;41.53;;;24.42;;
32108;SDS011;18624;50.042;8.436;2023-02-11T10:55:19;34.40;;;23.60;;
32108;SDS011;18624;50.042;8.436;2023-02-11T10:57:57;35.35;;;24.27;;
32108;SDS011;18624;50.042;8.436;2023-02-11T11:00:43;36.70;;;23.40;;
32108;SDS011;18624;50.042;8.436;2023-02-11T11:03:18;33.72;;;23.25;;
32108;SDS011;18624;50.042;8.436;2023-02-11T11:05:48;35.08;;;23.85;;
32108;SDS011;18624;50.042;8.436;2023-02-11T11:11:10;37.42;;;23.73;;
32108;SDS011;18624;50.042;8.436;2023-02-11T11:13:53;35.67;;;24.38;;
32108;SDS011;18624;50.042;8.436;2023-02-11T11:16:24;55.47;;;34.47;;
32108;SDS011;18624;50.042;8.436;2023-02-11T11:19:35;41.13;;;23.88;;
32108;SDS011;18624;50.042;8.436;2023-02-11T11:21:48;36.40;;;23.50;;
32108;SDS011;18624;50.042;8.436;2023-02-11T11:26:55;32.63;;;23.83;;
32108;SDS011;18624;50.042;8.436;2023-02-11T11:32:23;36.63;;;23.88;;
32108;SDS011;18624;50.042;8.436;2023-02-11T11:34:52;33.08;;;23.27;;
32108;SDS011;18624;50.042;8.436;2023-02-11T11:37:22;36.38;;;24.35;;
32108;SDS011;18624;50.042;8.436;2023-02-11T11:39:59;32.67;;;22.77;;
32108;SDS011;18624;50.042;8.436;2023-02-11T11:42:33;39.78;;;23.65;;
32108;SDS011;18624;50.042;8.436;2023-02-11T11:50:49;40.38;;;24.13;;
32108;SDS011;18624;50.042;8.436;2023-02-11T11:55:58;27.77;;;21.20;;
32108;SDS011;18624;50.042;8.436;2023-02-11T11:58:30;29.95;;;21.58;;
32108;SDS011;18624;50.042;8.436;2023-02-11T12:09:50;35.22;;;22.05;;
32108;SDS011;18624;50.042;8.436;2023-02-11T12:12:24;29.02;;;19.30;;
32108;SDS011;18624;50.042;8.436;2023-02-11T12:15:10;27.13;;;19.48;;
32108;SDS011;18624;50.042;8.436;2023-02-11T12:26:17;24.65;;;17.55;;
32108;SDS011;18624;50.042;8.436;2023-02-11T12:28:57;28.02;;;19.73;;
32108;SDS011;18624;50.042;8.436;2023-02-11T12:43:12;20.30;;;14.27;;
32108;SDS011;18624;50.042;8.436;2023-02-11T12:48:38;25.67;;;18.63;;
32108;SDS011;18624;50.042;8.436;2023-02-11T12:51:25;24.48;;;18.10;;
32108;SDS011;18624;50.042;8.436;2023-02-11T13:02:20;25.63;;;17.45;;
32108;SDS011;18624;50.042;8.436;2023-02-11T13:05:04;21.88;;;16.02;;
32108;SDS011;18624;50.042;8.436;2023-02-11T13:11:12;25.25;;;16.98;;
32108;SDS011;18624;50.042;8.436;2023-02-11T13:24:27;22.00;;;16.88;;
32108;SDS011;18624;50.042;8.436;2023-02-11T13:35:31;24.70;;;15.88;;
32108;SDS011;18624;50.042;8.436;2023-02-11T13:40:41;21.60;;;14.82;;
32108;SDS011;18624;50.042;8.436;2023-02-11T13:43:21;21.52;;;15.60;;
32108;SDS011;18624;50.042;8.436;2023-02-11T13:45:52;22.02;;;14.80;;
32108;SDS011;18624;50.042;8.436;2023-02-11T13:48:32;23.60;;;14.30;;
32108;SDS011;18624;50.042;8.436;2023-02-11T13:51:07;19.57;;;13.80;;
32108;SDS011;18624;50.042;8.436;2023-02-11T13:53:43;21.25;;;14.82;;
32108;SDS011;18624;50.042;8.436;2023-02-11T13:56:22;22.10;;;15.98;;
32108;SDS011;18624;50.042;8.436;2023-02-11T13:58:54;21.90;;;14.18;;
32108;SDS011;18624;50.042;8.436;2023-02-11T14:01:40;19.48;;;13.55;;
32108;SDS011;18624;50.042;8.436;2023-02-11T14:04:32;18.08;;;13.45;;
32108;SDS011;18624;50.042;8.436;2023-02-11T14:07:24;16.52;;;11.95;;
32108;SDS011;18624;50.042;8.436;2023-02-11T14:16:05;16.17;;;11.45;;
32108;SDS011;18624;50.042;8.436;2023-02-11T14:21:21;14.90;;;11.43;;
32108;SDS011;18624;50.042;8.436;2023-02-11T14:23:53;16.67;;;10.48;;
32108;SDS011;18624;50.042;8.436;2023-02-11T14:26:45;17.63;;;12.30;;
32108;SDS011;18624;50.042;8.436;2023-02-11T14:29:18;16.70;;;11.25;;
32108;SDS011;18624;50.042;8.436;2023-02-11T14:34:50;17.65;;;14.20;;
32108;SDS011;18624;50.042;8.436;2023-02-11T14:37:37;20.38;;;14.35;;
32108;SDS011;18624;50.042;8.436;2023-02-11T14:43:25;18.08;;;13.07;;
32108;SDS011;18624;50.042;8.436;2023-02-11T14:45:56;17.63;;;13.60;;
32108;SDS011;18624;50.042;8.436;2023-02-11T14:48:31;19.00;;;13.82;;
32108;SDS011;18624;50.042;8.436;2023-02-11T14:51:07;19.52;;;14.20;;
32108;SDS011;18624;50.042;8.436;2023-02-11T14:53:39;19.60;;;15.05;;
32108;SDS011;18624;50.042;8.436;2023-02-11T14:56:17;17.40;;;14.15;;
32108;SDS011;18624;50.042;8.436;2023-02-11T14:58:47;18.88;;;13.88;;
32108;SDS011;18624;50.042;8.436;2023-02-11T15:04:01;18.60;;;13.35;;
32108;SDS011;18624;50.042;8.436;2023-02-11T15:09:05;19.50;;;12.48;;
32108;SDS011;18624;50.042;8.436;2023-02-11T15:11:42;15.98;;;12.15;;
32108;SDS011;18624;50.042;8.436;2023-02-11T15:14:23;17.58;;;12.77;;
32108;SDS011;18624;50.042;8.436;2023-02-11T15:16:51;17.25;;;13.05;;
32108;SDS011;18624;50.042;8.436;2023-02-11T15:19:24;19.02;;;12.82;;
32108;SDS011;18624;50.042;8.436;2023-02-11T15:21:57;18.60;;;12.27;;
32108;SDS011;18624;50.042;8.436;2023-02-11T15:26:56;15.02;;;11.55;;
32108;SDS011;18624;50.042;8.436;2023-02-11T15:29:23;15.95;;;12.60;;
32108;SDS011;18624;50.042;8.436;2023-02-11T15:34:32;16.25;;;11.93;;
32108;SDS011;18624;50.042;8.436;2023-02-11T15:36:59;19.42;;;13.88;;
32108;SDS011;18624;50.042;8.436;2023-02-11T15:39:35;18.23;;;13.15;;
32108;SDS011;18624;50.042;8.436;2023-02-11T15:42:18;18.02;;;12.60;;
32108;SDS011;18624;50.042;8.436;2023-02-11T15:50:41;17.25;;;13.88;;
32108;SDS011;18624;50.042;8.436;2023-02-11T15:56:13;15.90;;;11.32;;
32108;SDS011;18624;50.042;8.436;2023-02-11T15:59:14;17.13;;;12.02;;
32108;SDS011;18624;50.042;8.436;2023-02-11T16:01:44;13.68;;;10.68;;
32108;SDS011;18624;50.042;8.436;2023-02-11T16:04:16;13.18;;;10.10;;
32108;SDS011;18624;50.042;8.436;2023-02-11T16:06:45;13.25;;;10.13;;
32108;SDS011;18624;50.042;8.436;2023-02-11T16:16:54;13.57;;;10.98;;
32108;SDS011;18624;50.042;8.436;2023-02-11T16:19:21;12.98;;;10.10;;
32108;SDS011;18624;50.042;8.436;2023-02-11T16:21:51;15.98;;;12.05;;
32108;SDS011;18624;50.042;8.436;2023-02-11T16:24:20;14.35;;;11.95;;
32108;SDS011;18624;50.042;8.436;2023-02-11T16:26:50;17.65;;;12.88;;
32108;SDS011;18624;50.042;8.436;2023-02-11T16:29:23;17.02;;;12.30;;
32108;SDS011;18624;50.042;8.436;2023-02-11T16:32:03;16.88;;;11.95;;
32108;SDS011;18624;50.042;8.436;2023-02-11T16:34:33;19.58;;;14.68;;
32108;SDS011;18624;50.042;8.436;2023-02-11T16:37:01;20.17;;;14.48;;
32108;SDS011;18624;50.042;8.436;2023-02-11T16:39:29;22.90;;;14.85;;
32108;SDS011;18624;50.042;8.436;2023-02-11T16:41:56;22.42;;;15.75;;
32108;SDS011;18624;50.042;8.436;2023-02-11T16:44:23;22.67;;;15.48;;
32108;SDS011;18624;50.042;8.436;2023-02-11T16:46:51;27.75;;;18.30;;
32108;SDS011;18624;50.042;8.436;2023-02-11T16:49:23;31.13;;;19.85;;
32108;SDS011;18624;50.042;8.436;2023-02-11T16:51:53;27.30;;;18.83;;
32108;SDS011;18624;50.042;8.436;2023-02-11T16:54:22;25.88;;;18.75;;
32108;SDS011;18624;50.042;8.436;2023-02-11T16:56:48;23.98;;;18.55;;
32108;SDS011;18624;50.042;8.436;2023-02-11T16:59:15;30.33;;;19.48;;
32108;SDS011;18624;50.042;8.436;2023-02-11T17:01:41;26.83;;;19.20;;
32108;SDS011;18624;50.042;8.436;2023-02-11T17:04:10;29.88;;;19.65;;
32108;SDS011;18624;50.042;8.436;2023-02-11T17:06:46;25.38;;;18.50;;
32108;SDS011;18624;50.042;8.436;2023-02-11T17:09:16;26.40;;;18.27;;
32108;SDS011;18624;50.042;8.436;2023-02-11T17:11:48;27.13;;;19.50;;
32108;SDS011;18624;50.042;8.436;2023-02-11T17:14:14;23.63;;;18.23;;
32108;SDS011;18624;50.042;8.436;2023-02-11T17:16:42;30.25;;;20.17;;
32108;SDS011;18624;50.042;8.436;2023-02-11T17:19:10;30.63;;;20.58;;
32108;SDS011;18624;50.042;8.436;2023-02-11T17:21:41;25.58;;;17.95;;
32108;SDS011;18624;50.042;8.436;2023-02-11T17:24:09;27.50;;;18.63;;